Time;durP1;ratioP1;P1;durP2;ratioP2;P2;SDS_P1;SDS_P2;PMS_P1;PMS_P2;Temp;Humidity;BMP_temperature;BMP_pressure;BME280_temperature;BME280_humidity;BME280_pressure;Samples;Min_cycle;Max_cycle;Signal;HPM_P1;HPM_P2
2022/06/10 00:00:54;;;;;;;5.40;2.90;;;17.30;99.90;;;;;;4081821;29;20036;-69
2022/06/10 00:02:55;;;;;;;4.55;2.30;;;17.30;99.90;;;;;;4095701;28;20042;-69
2022/06/10 00:04:55;;;;;;;3.22;2.50;;;17.20;99.90;;;;;;4095789;28;20039;-69
2022/06/10 00:06:56;;;;;;;5.75;2.53;;;17.20;99.90;;;;;;4095411;28;20097;-69
2022/06/10 00:08:57;;;;;;;5.32;2.17;;;17.20;99.90;;;;;;4094409;28;20031;-71
2022/06/10 00:10:59;;;;;;;4.20;2.50;;;17.20;99.90;;;;;;4094857;28;20061;-70
2022/06/10 00:13:00;;;;;;;3.13;2.10;;;17.20;99.90;;;;;;4095632;28;20039;-69
2022/06/10 00:15:01;;;;;;;5.60;2.67;;;17.20;99.90;;;;;;4085039;29;20063;-69
2022/06/10 00:17:04;;;;;;;3.47;2.35;;;17.10;99.90;;;;;;4094163;28;20038;-69
2022/06/10 00:19:04;;;;;;;3.63;2.00;;;17.10;99.90;;;;;;4095000;28;20027;-69
2022/06/10 00:21:08;;;;;;;3.92;2.58;;;17.10;99.90;;;;;;4095034;28;20061;-69
2022/06/10 00:23:09;;;;;;;4.22;2.50;;;17.10;99.90;;;;;;4096152;28;20035;-69
2022/06/10 00:25:10;;;;;;;4.82;2.50;;;17.10;99.90;;;;;;4082821;29;20039;-70
2022/06/10 00:27:10;;;;;;;4.03;2.47;;;17.00;99.90;;;;;;4093828;28;20042;-69
2022/06/10 00:29:11;;;;;;;5.35;2.70;;;17.00;99.90;;;;;;4094519;28;20114;-69
2022/06/10 00:31:12;;;;;;;7.18;3.30;;;16.90;99.90;;;;;;4081329;29;20403;-69
2022/06/10 00:33:13;;;;;;;8.27;3.30;;;16.90;99.90;;;;;;4094345;28;20039;-69
2022/06/10 00:35:14;;;;;;;10.73;4.15;;;16.90;99.90;;;;;;4094315;28;20027;-69
2022/06/10 00:37:15;;;;;;;8.15;3.95;;;16.90;99.90;;;;;;4095824;28;20031;-69
2022/06/10 00:39:16;;;;;;;7.25;3.53;;;16.90;99.90;;;;;;4095247;28;20171;-70
2022/06/10 00:41:17;;;;;;;7.78;3.58;;;16.90;99.90;;;;;;4094655;28;20047;-70
2022/06/10 00:43:23;;;;;;;5.07;3.55;;;16.90;99.90;;;;;;4095742;28;20478;-69
2022/06/10 00:45:48;;;;;;;4.57;3.10;;;16.90;99.90;;;;;;4094489;28;20034;-69
2022/06/10 00:47:49;;;;;;;6.28;2.75;;;16.80;99.90;;;;;;4094048;28;20396;-69
2022/06/10 00:50:28;;;;;;;4.75;2.70;;;16.80;99.90;;;;;;4095033;28;20046;-68
2022/06/10 00:52:42;;;;;;;5.70;2.60;;;16.80;99.90;;;;;;4072005;29;20039;-69
2022/06/10 00:54:45;;;;;;;5.43;2.90;;;16.80;99.90;;;;;;4095438;28;20043;-68
2022/06/10 00:57:03;;;;;;;5.47;2.55;;;16.80;99.90;;;;;;4094324;28;20440;-69
2022/06/10 00:59:12;;;;;;;6.30;2.70;;;16.80;99.90;;;;;;4094906;28;20098;-69
2022/06/10 01:01:14;;;;;;;4.32;2.22;;;16.70;99.90;;;;;;4093163;28;20118;-69
2022/06/10 01:03:15;;;;;;;3.90;2.75;;;16.70;99.90;;;;;;4095483;28;20070;-69
2022/06/10 01:05:19;;;;;;;4.32;2.90;;;16.80;99.90;;;;;;4094859;28;20031;-69
2022/06/10 01:07:26;;;;;;;6.22;3.10;;;16.70;99.90;;;;;;4095031;28;20106;-69
2022/06/10 01:09:29;;;;;;;5.63;3.13;;;16.70;99.90;;;;;;4081544;29;20031;-69
2022/06/10 01:11:54;;;;;;;4.95;3.08;;;16.60;99.90;;;;;;4095830;28;20102;-69
2022/06/10 01:14:14;;;;;;;6.47;2.88;;;16.60;99.90;;;;;;4099259;28;20402;-68
2022/06/10 01:16:30;;;;;;;5.28;3.40;;;16.60;99.90;;;;;;4076051;29;20118;-69
2022/06/10 01:18:53;;;;;;;4.18;2.95;;;16.60;99.90;;;;;;4095504;28;20171;-69
2022/06/10 01:20:59;;;;;;;4.28;2.90;;;16.60;99.90;;;;;;4095033;28;20407;-69
2022/06/10 01:23:15;;;;;;;3.92;3.25;;;16.50;99.90;;;;;;4098907;28;20031;-69
2022/06/10 01:25:49;;;;;;;4.32;3.10;;;16.50;99.90;;;;;;4098691;28;20127;-69
2022/06/10 01:27:55;;;;;;;4.47;2.75;;;16.50;99.90;;;;;;4084763;29;20024;-69
2022/06/10 01:30:38;;;;;;;4.55;3.00;;;16.50;99.90;;;;;;4098081;28;20092;-69
2022/06/10 01:32:58;;;;;;;7.17;3.20;;;16.50;99.90;;;;;;4098467;28;20035;-69
2022/06/10 01:35:22;;;;;;;4.53;3.00;;;16.50;99.90;;;;;;4093010;28;20046;-69
2022/06/10 01:37:33;;;;;;;5.38;3.28;;;16.50;99.90;;;;;;4097736;28;20435;-69
2022/06/10 01:39:40;;;;;;;7.95;3.90;;;16.40;99.90;;;;;;4098210;28;20067;-69
2022/06/10 01:41:56;;;;;;;5.35;3.10;;;16.40;99.90;;;;;;4098045;28;20035;-69
2022/06/10 01:44:27;;;;;;;7.13;2.97;;;16.40;99.90;;;;;;4097574;28;20047;-68
2022/06/10 01:46:32;;;;;;;4.15;3.10;;;16.40;99.90;;;;;;4104502;28;20038;-70
2022/06/10 01:49:10;;;;;;;6.28;3.22;;;16.40;99.90;;;;;;4096994;28;20036;-69
2022/06/10 01:51:20;;;;;;;3.47;2.80;;;16.40;99.90;;;;;;4094448;28;20125;-69
2022/06/10 01:53:33;;;;;;;7.82;3.35;;;16.30;99.90;;;;;;4097675;28;20058;-69
2022/06/10 01:55:40;;;;;;;4.07;3.05;;;16.30;99.90;;;;;;4095755;28;20035;-69
2022/06/10 01:57:44;;;;;;;7.90;3.50;;;16.30;99.90;;;;;;4097410;28;20031;-69
2022/06/10 01:59:55;;;;;;;7.78;3.75;;;16.30;99.90;;;;;;4094716;28;20041;-68
2022/06/10 02:02:02;;;;;;;4.85;3.20;;;16.30;99.90;;;;;;4067215;29;20107;-69
2022/06/10 02:04:10;;;;;;;6.00;2.92;;;16.30;99.90;;;;;;4095528;28;20142;-69
2022/06/10 02:06:26;;;;;;;5.13;3.35;;;16.30;99.90;;;;;;4097529;28;20113;-69
2022/06/10 02:08:34;;;;;;;5.55;3.25;;;16.30;99.90;;;;;;4096652;28;20064;-69
2022/06/10 02:10:40;;;;;;;5.18;3.45;;;16.30;99.90;;;;;;4097383;28;20509;-69
2022/06/10 02:12:46;;;;;;;5.28;3.38;;;16.30;99.90;;;;;;4096267;28;20118;-69
2022/06/10 02:15:00;;;;;;;5.88;3.63;;;16.30;99.90;;;;;;4080546;28;20043;-72
2022/06/10 02:17:02;;;;;;;4.30;2.78;;;16.20;99.90;;;;;;4096039;28;20038;-69
2022/06/10 02:19:23;;;;;;;5.97;3.42;;;16.20;99.90;;;;;;4096694;28;20118;-69
2022/06/10 02:21:35;;;;;;;5.75;3.70;;;16.20;99.90;;;;;;4096557;28;20055;-69
2022/06/10 02:23:43;;;;;;;5.60;3.38;;;16.20;99.90;;;;;;4096452;28;20075;-69
2022/06/10 02:25:49;;;;;;;5.38;3.40;;;16.10;99.90;;;;;;4095806;28;20043;-69
2022/06/10 02:27:53;;;;;;;5.00;3.03;;;16.10;99.90;;;;;;4096608;28;20554;-69
2022/06/10 02:30:01;;;;;;;5.22;3.35;;;16.10;99.90;;;;;;4096674;28;20027;-69
2022/06/10 02:32:02;;;;;;;4.93;3.50;;;16.10;99.90;;;;;;4083509;29;20093;-69
2022/06/10 02:34:04;;;;;;;3.97;3.10;;;16.10;99.90;;;;;;4096512;28;20406;-69
2022/06/10 02:36:04;;;;;;;4.40;3.05;;;16.10;99.90;;;;;;4083398;29;20036;-69
2022/06/10 02:38:26;;;;;;;7.53;3.60;;;16.10;99.90;;;;;;4095861;28;20046;-69
2022/06/10 02:40:48;;;;;;;8.53;3.87;;;16.10;99.90;;;;;;4095944;28;20059;-69
2022/06/10 02:43:16;;;;;;;6.72;3.28;;;16.10;99.90;;;;;;4096770;28;20090;-69
2022/06/10 02:45:33;;;;;;;6.05;3.45;;;16.00;99.90;;;;;;4095574;28;20035;-69
2022/06/10 02:47:46;;;;;;;5.03;3.00;;;16.00;99.90;;;;;;4095434;28;20403;-69
2022/06/10 02:49:47;;;;;;;5.45;3.28;;;16.00;99.90;;;;;;4096376;28;20423;-71
2022/06/10 02:51:48;;;;;;;7.82;3.33;;;16.00;99.90;;;;;;4096751;28;20043;-70
2022/06/10 02:53:49;;;;;;;6.28;3.47;;;16.00;99.90;;;;;;4097293;28;20047;-69
2022/06/10 02:55:50;;;;;;;5.20;3.70;;;16.00;99.90;;;;;;4095518;28;20093;-69
2022/06/10 03:02:52;;;;;;;8.00;3.50;;;15.80;99.90;;;;;;4095937;28;20494;-69
2022/06/10 03:04:58;;;;;;;;;;;15.80;99.90;;;;;;4097211;28;20557;-69
2022/06/10 03:07:08;;;;;;;8.75;3.70;;;15.70;99.90;;;;;;4096305;28;19926;-70
2022/06/10 03:09:36;;;;;;;6.72;3.50;;;15.70;99.90;;;;;;4097115;28;20042;-69
2022/06/10 03:11:47;;;;;;;8.30;3.63;;;15.60;99.90;;;;;;4094559;28;20043;-69
2022/06/10 03:14:05;;;;;;;6.60;3.50;;;15.60;99.90;;;;;;4097263;28;20374;-69
2022/06/10 03:16:19;;;;;;;4.85;3.17;;;15.60;99.90;;;;;;4097067;28;20398;-69
2022/06/10 03:18:44;;;;;;;7.60;3.85;;;15.60;99.90;;;;;;4079156;29;20039;-69
2022/06/10 03:21:00;;;;;;;9.88;3.67;;;15.60;99.90;;;;;;4096503;28;20039;-69
2022/06/10 03:23:14;;;;;;;6.93;3.03;;;15.60;99.90;;;;;;4096871;28;20042;-69
2022/06/10 03:25:30;;;;;;;3.55;3.05;;;15.60;99.90;;;;;;4097069;28;20031;-69
2022/06/10 03:28:05;;;;;;;8.43;3.35;;;15.60;99.90;;;;;;4093741;28;20526;-69
2022/06/10 03:30:11;;;;;;;4.75;3.10;;;15.60;99.90;;;;;;4095086;28;20114;-72
2022/06/10 03:32:52;;;;;;;6.30;3.42;;;15.60;99.90;;;;;;4089675;29;20067;-69
2022/06/10 03:35:08;;;;;;;4.38;3.40;;;15.60;99.90;;;;;;4052366;29;20035;-69
2022/06/10 03:37:11;;;;;;;6.15;3.35;;;15.50;99.90;;;;;;4096135;28;20043;-69
2022/06/10 03:39:13;;;;;;;4.40;2.97;;;15.60;99.90;;;;;;4095607;28;20030;-68
2022/06/10 03:41:32;;;;;;;5.10;3.45;;;15.50;99.90;;;;;;4096597;28;20070;-68
2022/06/10 03:43:37;;;;;;;8.07;3.58;;;15.50;99.90;;;;;;4093276;28;20031;-68
2022/06/10 03:45:50;;;;;;;6.13;3.63;;;15.60;99.90;;;;;;4096099;28;20062;-68
2022/06/10 03:47:51;;;;;;;8.38;3.67;;;15.60;99.90;;;;;;4092051;28;20094;-69
2022/06/10 03:50:08;;;;;;;4.70;3.15;;;15.60;99.90;;;;;;4087473;29;20031;-69
2022/06/10 03:52:15;;;;;;;5.13;2.90;;;15.60;99.90;;;;;;4094504;28;20043;-69
2022/06/10 03:54:18;;;;;;;7.45;3.47;;;15.60;99.90;;;;;;4080368;28;20399;-69
2022/06/10 03:56:23;;;;;;;5.47;3.33;;;15.50;99.90;;;;;;4080259;28;20491;-68
2022/06/10 03:58:24;;;;;;;5.38;3.45;;;15.50;99.90;;;;;;4080053;28;20034;-68
2022/06/10 04:00:28;;;;;;;6.43;3.53;;;15.50;99.90;;;;;;4080142;28;20031;-68
2022/06/10 04:02:28;;;;;;;7.75;3.40;;;15.50;99.90;;;;;;4082137;28;20127;-68
2022/06/10 04:04:29;;;;;;;6.90;3.42;;;15.40;99.90;;;;;;4081030;28;20061;-68
2022/06/10 04:06:29;;;;;;;4.63;2.92;;;15.50;99.90;;;;;;4080513;28;20059;-68
2022/06/10 04:08:30;;;;;;;8.23;3.13;;;15.50;99.90;;;;;;4079708;28;20039;-70
2022/06/10 04:10:31;;;;;;;4.35;3.17;;;15.50;99.90;;;;;;4079175;28;20059;-68
2022/06/10 04:12:32;;;;;;;5.50;2.90;;;15.50;99.90;;;;;;4076445;28;20094;-68
2022/06/10 04:14:32;;;;;;;5.78;3.10;;;15.50;99.90;;;;;;4080077;28;20128;-68
2022/06/10 04:16:33;;;;;;;5.40;2.97;;;15.60;99.90;;;;;;4079495;28;20594;-68
2022/06/10 04:18:34;;;;;;;9.57;2.88;;;15.50;99.90;;;;;;4079338;28;20040;-68
2022/06/10 04:20:36;;;;;;;10.82;3.00;;;15.60;99.90;;;;;;4079294;29;20032;-68
2022/06/10 04:22:37;;;;;;;17.50;2.97;;;15.60;99.90;;;;;;4078757;29;20076;-68
2022/06/10 04:24:38;;;;;;;9.10;3.15;;;15.60;99.90;;;;;;4080569;28;20063;-68
2022/06/10 04:26:39;;;;;;;6.80;2.97;;;15.60;99.90;;;;;;4078715;28;20435;-69
2022/06/10 04:28:39;;;;;;;5.40;2.88;;;15.70;99.90;;;;;;4078196;28;20032;-68
2022/06/10 04:30:43;;;;;;;5.57;2.85;;;15.70;99.90;;;;;;4074720;28;20044;-68
2022/06/10 04:32:44;;;;;;;6.15;2.85;;;15.70;99.90;;;;;;4075285;28;20023;-69
2022/06/10 04:34:44;;;;;;;8.43;3.25;;;15.70;99.90;;;;;;4080478;28;20031;-69
2022/06/10 04:36:45;;;;;;;6.55;2.70;;;15.80;99.90;;;;;;4078790;28;20055;-68
2022/06/10 04:38:46;;;;;;;6.10;2.78;;;15.80;99.90;;;;;;4077862;28;20036;-69
2022/06/10 04:40:48;;;;;;;9.23;3.03;;;15.70;99.90;;;;;;4078840;28;20056;-69
2022/06/10 04:42:51;;;;;;;6.97;3.35;;;15.70;99.90;;;;;;4079512;28;20052;-68
2022/06/10 04:44:52;;;;;;;8.43;3.15;;;15.70;99.90;;;;;;4079140;28;20406;-69
2022/06/10 04:46:52;;;;;;;7.22;2.65;;;15.70;99.90;;;;;;4082192;28;20035;-69
2022/06/10 04:48:53;;;;;;;5.57;2.53;;;15.70;99.90;;;;;;4086716;28;20032;-69
2022/06/10 04:50:54;;;;;;;7.53;2.63;;;15.70;99.90;;;;;;4085206;28;20379;-68
2022/06/10 04:52:56;;;;;;;5.82;2.72;;;15.70;99.90;;;;;;4087322;28;20057;-68
2022/06/10 04:54:57;;;;;;;6.22;2.60;;;15.70;99.90;;;;;;4101525;28;20066;-70
2022/06/10 04:56:57;;;;;;;6.82;2.75;;;15.70;99.90;;;;;;4100387;28;20031;-70
2022/06/10 04:58:58;;;;;;;7.72;2.88;;;15.70;99.90;;;;;;4100619;28;20028;-70
2022/06/10 05:00:59;;;;;;;10.18;2.63;;;15.70;99.90;;;;;;4100421;28;20031;-70
2022/06/10 05:03:02;;;;;;;10.93;2.85;;;15.70;99.90;;;;;;4100262;28;20027;-70
2022/06/10 05:05:03;;;;;;;4.88;2.30;;;15.80;99.90;;;;;;4100337;28;20059;-70
2022/06/10 05:07:04;;;;;;;5.95;2.15;;;15.80;99.90;;;;;;4092765;29;20035;-70
2022/06/10 05:09:04;;;;;;;4.28;2.38;;;15.80;99.90;;;;;;4100823;28;20024;-70
2022/06/10 05:11:07;;;;;;;7.03;2.70;;;15.80;99.90;;;;;;4101879;28;20278;-70
2022/06/10 05:13:07;;;;;;;8.52;2.95;;;15.80;99.90;;;;;;4100967;28;20569;-70
2022/06/10 05:15:08;;;;;;;5.78;2.50;;;15.90;99.90;;;;;;4100915;28;20070;-70
2022/06/10 05:17:09;;;;;;;5.82;2.40;;;15.90;99.90;;;;;;4100679;28;20040;-70
2022/06/10 05:19:09;;;;;;;6.32;2.38;;;15.90;99.90;;;;;;4100734;28;20078;-70
2022/06/10 05:21:10;;;;;;;7.03;2.55;;;15.90;99.90;;;;;;4100174;28;20039;-70
2022/06/10 05:23:13;;;;;;;8.48;2.92;;;15.90;99.90;;;;;;4098528;28;20355;-70
2022/06/10 05:25:14;;;;;;;5.30;2.38;;;15.90;99.90;;;;;;4086434;29;20380;-70
2022/06/10 05:27:14;;;;;;;6.75;2.53;;;15.90;99.90;;;;;;4096782;28;20046;-70
2022/06/10 05:29:15;;;;;;;5.20;2.25;;;16.00;99.90;;;;;;4097438;28;20037;-70
2022/06/10 05:31:15;;;;;;;5.90;2.70;;;16.00;99.90;;;;;;4096581;28;20031;-70
2022/06/10 05:33:16;;;;;;;5.38;2.72;;;16.00;99.90;;;;;;4096495;28;20182;-70
2022/06/10 05:35:17;;;;;;;5.43;2.42;;;16.10;99.90;;;;;;4097085;28;20038;-70
2022/06/10 05:37:23;;;;;;;8.00;2.50;;;16.10;99.90;;;;;;4097150;28;20050;-70
2022/06/10 05:39:23;;;;;;;6.25;2.58;;;16.00;99.90;;;;;;4097182;28;20609;-70
2022/06/10 05:43:43;;;;;;;5.75;2.10;;;16.10;99.90;;;;;;4097507;28;20031;-70
2022/06/10 05:45:43;;;;;;;4.60;2.30;;;16.20;99.90;;;;;;4083073;29;20103;-70
2022/06/10 05:47:47;;;;;;;5.15;2.30;;;16.10;99.90;;;;;;4097128;28;20031;-70
2022/06/10 05:49:52;;;;;;;4.97;2.40;;;16.10;99.90;;;;;;4096668;28;20506;-70
2022/06/10 05:51:53;;;;;;;5.15;2.40;;;16.20;99.90;;;;;;4094986;28;20090;-70
2022/06/10 05:53:53;;;;;;;7.07;2.53;;;16.20;99.90;;;;;;4097144;28;20055;-70
2022/06/10 05:55:54;;;;;;;9.00;2.58;;;16.20;99.90;;;;;;4097266;28;20039;-70
2022/06/10 05:57:54;;;;;;;5.93;2.45;;;16.20;99.90;;;;;;4094439;28;20061;-70
2022/06/10 05:59:55;;;;;;;9.60;2.35;;;16.20;99.90;;;;;;4096170;28;20043;-70
2022/06/10 06:01:56;;;;;;;6.25;2.45;;;16.20;99.90;;;;;;4073793;28;20138;-70
2022/06/10 06:03:57;;;;;;;8.65;2.85;;;16.20;99.90;;;;;;4076194;28;20046;-70
2022/06/10 06:05:58;;;;;;;7.32;2.53;;;16.20;99.90;;;;;;4093297;28;20455;-70
2022/06/10 06:07:58;;;;;;;7.65;2.65;;;16.20;99.90;;;;;;4092784;28;20062;-70
2022/06/10 06:09:59;;;;;;;6.20;2.08;;;16.20;99.90;;;;;;4093418;28;20126;-70
2022/06/10 06:12:00;;;;;;;4.53;2.20;;;16.30;99.90;;;;;;4076078;28;20056;-70
2022/06/10 06:14:00;;;;;;;4.50;2.25;;;16.30;99.90;;;;;;4093463;28;20051;-70
2022/06/10 06:16:01;;;;;;;7.25;2.10;;;16.30;99.90;;;;;;4092813;28;20487;-70
2022/06/10 06:18:02;;;;;;;8.93;2.83;;;16.40;99.90;;;;;;4092963;28;20564;-70
2022/06/10 06:20:04;;;;;;;8.27;1.95;;;16.40;99.90;;;;;;4080530;29;20036;-70
2022/06/10 06:22:05;;;;;;;4.78;2.47;;;16.40;99.90;;;;;;4093663;28;20079;-70
2022/06/10 06:24:06;;;;;;;6.13;2.10;;;16.50;99.90;;;;;;4093784;28;20042;-70
2022/06/10 06:26:10;;;;;;;10.65;2.67;;;16.40;99.90;;;;;;4093640;28;20122;-70
2022/06/10 06:28:11;;;;;;;4.82;2.00;;;16.50;99.90;;;;;;4093525;28;20039;-70
2022/06/10 06:30:17;;;;;;;7.63;2.45;;;16.50;99.90;;;;;;4057262;29;20050;-71
2022/06/10 06:32:18;;;;;;;4.60;2.05;;;16.50;99.90;;;;;;4076213;29;20035;-70
2022/06/10 06:34:20;;;;;;;7.35;2.40;;;16.50;99.90;;;;;;4095469;28;20062;-70
2022/06/10 06:36:24;;;;;;;6.55;1.98;;;16.60;99.90;;;;;;4093995;28;20049;-70
2022/06/10 06:38:27;;;;;;;6.82;2.13;;;16.60;99.90;;;;;;4094105;28;20395;-70
2022/06/10 06:40:28;;;;;;;5.93;1.92;;;16.60;99.90;;;;;;4093095;28;20043;-70
2022/06/10 06:42:28;;;;;;;5.68;2.13;;;16.60;99.90;;;;;;4093456;28;20046;-70
2022/06/10 06:44:29;;;;;;;7.57;2.55;;;16.70;99.90;;;;;;4088991;28;20621;-70
2022/06/10 06:46:29;;;;;;;6.82;2.10;;;16.70;99.90;;;;;;4077842;29;20353;-70
2022/06/10 06:48:30;;;;;;;6.63;2.08;;;16.70;99.90;;;;;;4093320;28;20067;-70
2022/06/10 06:50:32;;;;;;;5.22;1.85;;;16.70;99.90;;;;;;4092662;28;20039;-70
2022/06/10 06:52:33;;;;;;;11.73;2.45;;;16.70;99.90;;;;;;4089289;28;20111;-70
2022/06/10 06:54:35;;;;;;;12.32;3.08;;;16.70;99.90;;;;;;4093544;28;20043;-71
2022/06/10 06:56:36;;;;;;;7.55;1.85;;;16.80;99.90;;;;;;4093810;28;20534;-70
2022/06/10 06:58:37;;;;;;;6.18;2.30;;;16.80;99.90;;;;;;4093246;28;20039;-70
2022/06/10 07:00:38;;;;;;;7.65;2.28;;;16.80;99.90;;;;;;4093352;28;20039;-69
2022/06/10 07:02:38;;;;;;;5.10;2.00;;;16.80;99.90;;;;;;4092989;28;20094;-70
2022/06/10 07:04:39;;;;;;;6.40;1.92;;;16.90;99.90;;;;;;4093546;28;20047;-70
2022/06/10 07:06:39;;;;;;;7.78;2.55;;;16.90;99.90;;;;;;4092258;28;20510;-70
2022/06/10 07:08:40;;;;;;;5.68;2.13;;;17.00;99.90;;;;;;4092159;28;20446;-70
2022/06/10 07:10:41;;;;;;;4.45;1.65;;;17.00;99.90;;;;;;4094139;28;20137;-70
2022/06/10 07:12:42;;;;;;;7.07;2.00;;;17.00;99.90;;;;;;4091820;28;20058;-70
2022/06/10 07:14:42;;;;;;;7.50;2.20;;;17.10;99.90;;;;;;4093557;28;20046;-70
2022/06/10 07:16:43;;;;;;;5.25;1.90;;;17.10;99.90;;;;;;4093891;28;20058;-70
2022/06/10 07:18:44;;;;;;;5.90;1.70;;;17.20;99.90;;;;;;4092421;28;20031;-72
2022/06/10 07:20:44;;;;;;;7.13;2.20;;;17.20;99.90;;;;;;4071050;29;20533;-71
2022/06/10 07:22:45;;;;;;;6.78;2.03;;;17.20;99.90;;;;;;4092001;28;20039;-69
2022/06/10 07:24:46;;;;;;;6.32;1.90;;;17.30;99.90;;;;;;4093148;28;20111;-70
2022/06/10 07:26:47;;;;;;;5.45;2.10;;;17.30;99.90;;;;;;4076927;29;20036;-70
2022/06/10 07:28:47;;;;;;;7.35;1.75;;;17.30;99.90;;;;;;4092224;28;20050;-70
2022/06/10 07:30:48;;;;;;;5.38;1.70;;;17.40;99.90;;;;;;4091664;28;20114;-71
2022/06/10 07:32:49;;;;;;;3.60;1.25;;;17.40;99.90;;;;;;4076492;29;20035;-71
2022/06/10 07:34:49;;;;;;;7.55;2.08;;;17.50;99.90;;;;;;4075432;29;20490;-71
2022/06/10 07:36:50;;;;;;;4.18;1.65;;;17.50;99.90;;;;;;4090952;28;20032;-71
2022/06/10 07:38:51;;;;;;;6.45;1.58;;;17.50;99.90;;;;;;4091897;28;20035;-71
2022/06/10 07:43:11;;;;;;;4.32;1.13;;;17.60;99.90;;;;;;4093414;28;20039;-71
2022/06/10 07:45:11;;;;;;;7.53;2.08;;;17.70;99.90;;;;;;4091344;28;20090;-71
2022/06/10 07:47:14;;;;;;;9.98;2.00;;;17.70;99.90;;;;;;4084408;28;20100;-70
2022/06/10 07:49:15;;;;;;;4.15;1.30;;;17.70;99.90;;;;;;4092459;28;20492;-70
2022/06/10 07:51:17;;;;;;;7.03;1.38;;;17.70;99.90;;;;;;4093251;28;20395;-71
2022/06/10 07:53:19;;;;;;;6.50;1.33;;;17.70;99.90;;;;;;4090957;28;20094;-71
2022/06/10 07:55:19;;;;;;;4.95;1.55;;;17.70;99.90;;;;;;4074669;29;20534;-70
2022/06/10 07:57:20;;;;;;;8.43;1.50;;;17.70;99.90;;;;;;4092490;28;20087;-70
2022/06/10 07:59:21;;;;;;;7.85;1.90;;;17.70;99.90;;;;;;4084195;28;20031;-71
2022/06/10 08:01:22;;;;;;;3.63;1.30;;;17.70;99.90;;;;;;4089105;29;20443;-71
2022/06/10 08:03:24;;;;;;;7.57;1.60;;;17.70;99.90;;;;;;4091286;28;20090;-71
2022/06/10 08:05:24;;;;;;;3.58;1.33;;;17.70;99.90;;;;;;4092157;29;20130;-71
2022/06/10 08:07:25;;;;;;;4.38;1.40;;;17.70;99.90;;;;;;4091666;28;20476;-71
2022/06/10 08:09:26;;;;;;;5.30;1.20;;;17.60;99.90;;;;;;4088895;28;20047;-71
2022/06/10 08:11:27;;;;;;;4.85;1.20;;;17.70;99.90;;;;;;4091390;28;20142;-71
2022/06/10 08:13:28;;;;;;;6.97;2.00;;;17.70;99.90;;;;;;4069030;29;20130;-71
2022/06/10 08:15:30;;;;;;;4.30;1.30;;;17.70;99.90;;;;;;4075001;29;20039;-71
2022/06/10 08:17:30;;;;;;;4.80;1.40;;;17.70;99.90;;;;;;4091585;28;20043;-71
2022/06/10 08:19:32;;;;;;;5.20;1.30;;;17.70;99.90;;;;;;4092322;28;20058;-71
2022/06/10 08:23:53;;;;;;;6.00;1.15;;;17.70;99.90;;;;;;4091305;28;20402;-70
2022/06/10 08:25:55;;;;;;;5.32;1.52;;;17.70;99.90;;;;;;4092478;28;20035;-70
2022/06/10 08:27:55;;;;;;;6.75;2.00;;;17.70;99.90;;;;;;4092595;28;20419;-70
2022/06/10 08:29:57;;;;;;;3.38;1.20;;;17.70;99.90;;;;;;4091290;28;20061;-70
2022/06/10 08:31:57;;;;;;;6.28;1.77;;;17.70;99.90;;;;;;4091249;28;20044;-70
2022/06/10 08:33:58;;;;;;;6.47;1.40;;;17.70;99.90;;;;;;4092113;28;20054;-70
2022/06/10 08:36:00;;;;;;;5.95;1.40;;;17.70;99.90;;;;;;4092134;29;20047;-70
2022/06/10 08:38:03;;;;;;;4.07;0.95;;;17.70;99.90;;;;;;4073248;29;20043;-70
2022/06/10 08:40:04;;;;;;;5.78;1.77;;;17.80;99.90;;;;;;4091210;28;20046;-70
2022/06/10 08:42:05;;;;;;;3.08;1.02;;;17.80;99.90;;;;;;4091067;28;20932;-71
2022/06/10 08:44:24;;;;;;;5.40;1.23;;;17.80;99.90;;;;;;4092330;28;20558;-70
2022/06/10 08:46:47;;;;;;;6.30;1.52;;;17.80;99.90;;;;;;4092169;28;20031;-70
2022/06/10 08:49:06;;;;;;;4.57;1.40;;;17.80;99.90;;;;;;4093576;28;20039;-70
2022/06/10 08:51:37;;;;;;;4.82;1.60;;;17.90;99.90;;;;;;4090314;28;20715;-70
2022/06/10 08:53:55;;;;;;;3.92;1.13;;;17.80;99.90;;;;;;4091753;28;20039;-70
2022/06/10 08:56:25;;;;;;;7.07;1.45;;;17.90;99.90;;;;;;4091355;28;20253;-70
2022/06/10 08:58:32;;;;;;;6.18;1.25;;;17.80;99.90;;;;;;4075208;29;20586;-70
2022/06/10 09:00:38;;;;;;;4.43;1.20;;;17.90;99.90;;;;;;4075549;29;20059;-70
2022/06/10 09:02:44;;;;;;;5.95;1.60;;;17.90;99.90;;;;;;4093162;28;20040;-71
2022/06/10 09:05:04;;;;;;;3.58;1.20;;;18.00;99.90;;;;;;4091523;28;20121;-70
2022/06/10 09:07:12;;;;;;;3.67;1.23;;;18.00;99.90;;;;;;4092375;28;20118;-70
2022/06/10 09:09:14;;;;;;;4.32;1.15;;;18.10;99.90;;;;;;4091686;28;20058;-70
2022/06/10 09:11:51;;;;;;;6.82;1.45;;;18.10;99.90;;;;;;4091850;28;20546;-70
2022/06/10 09:14:12;;;;;;;6.03;1.42;;;18.20;99.90;;;;;;4091873;28;20039;-71
2022/06/10 09:16:21;;;;;;;8.57;1.80;;;18.30;99.90;;;;;;4089769;28;20158;-70
2022/06/10 09:18:55;;;;;;;15.15;1.85;;;18.40;99.90;;;;;;4091608;28;20395;-70
2022/06/10 09:21:31;;;;;;;2.85;1.20;;;18.40;99.90;;;;;;4076011;29;20032;-70
2022/06/10 09:23:38;;;;;;;2.92;1.00;;;18.50;99.90;;;;;;4064123;28;20051;-70
2022/06/10 09:25:43;;;;;;;7.13;1.73;;;18.70;99.90;;;;;;4092355;28;20035;-70
2022/06/10 09:27:48;;;;;;;8.23;2.08;;;18.80;99.90;;;;;;4091400;28;20058;-70
2022/06/10 09:29:48;;;;;;;7.00;1.63;;;18.80;99.90;;;;;;4092213;28;20027;-70
2022/06/10 09:32:10;;;;;;;5.75;1.33;;;19.00;99.90;;;;;;4075778;28;20439;-70
2022/06/10 09:34:27;;;;;;;4.32;1.08;;;19.10;99.90;;;;;;4078558;29;20059;-70
2022/06/10 09:36:51;;;;;;;4.05;1.38;;;19.20;99.90;;;;;;4094246;28;20053;-70
2022/06/10 09:39:04;;;;;;;5.63;1.60;;;19.40;99.90;;;;;;4094746;28;20032;-70
2022/06/10 09:41:33;;;;;;;6.85;1.10;;;19.40;99.90;;;;;;4095055;28;20043;-72
2022/06/10 09:43:45;;;;;;;3.63;1.15;;;19.50;99.90;;;;;;4095215;28;20122;-70
2022/06/10 09:45:55;;;;;;;4.45;1.20;;;19.70;99.90;;;;;;4094640;28;20118;-70
2022/06/10 09:48:14;;;;;;;5.13;1.85;;;19.70;99.90;;;;;;4094405;28;20027;-70
2022/06/10 09:50:25;;;;;;;6.75;1.70;;;19.90;99.90;;;;;;4094763;28;20098;-70
2022/06/10 09:52:49;;;;;;;6.20;1.88;;;20.00;99.90;;;;;;4091970;28;20034;-70
2022/06/10 09:55:21;;;;;;;7.85;1.77;;;20.10;99.90;;;;;;4097927;28;20078;-70
2022/06/10 09:57:40;;;;;;;7.82;1.80;;;20.30;99.90;;;;;;4074836;28;20055;-71
2022/06/10 09:59:57;;;;;;;4.60;1.60;;;20.40;99.90;;;;;;4090233;28;20042;-70
2022/06/10 10:02:30;;;;;;;5.97;1.63;;;20.50;99.90;;;;;;4091364;28;20126;-70
2022/06/10 10:04:51;;;;;;;5.50;1.03;;;20.60;99.90;;;;;;4070366;28;20047;-70
2022/06/10 10:07:03;;;;;;;6.88;1.60;;;20.70;99.90;;;;;;4094602;28;20261;-70
2022/06/10 10:09:32;;;;;;;5.13;1.25;;;20.80;99.90;;;;;;4096113;28;20047;-70
2022/06/10 10:12:14;;;;;;;4.20;1.20;;;20.90;99.90;;;;;;4092963;28;20051;-70
2022/06/10 10:14:32;;;;;;;4.43;1.20;;;21.00;99.90;;;;;;4060789;29;20067;-71
2022/06/10 10:17:20;;;;;;;6.03;1.45;;;21.10;99.90;;;;;;4082053;28;20490;-70
2022/06/10 10:19:39;;;;;;;6.55;1.52;;;21.10;99.90;;;;;;4075773;28;20043;-71
2022/06/10 10:21:57;;;;;;;2.75;1.17;;;21.20;99.90;;;;;;4093750;28;20458;-71
2022/06/10 10:23:59;;;;;;;5.25;1.25;;;21.30;99.90;;;;;;4094419;28;20039;-70
2022/06/10 10:26:02;;;;;;;5.00;1.20;;;21.30;99.90;;;;;;4094566;28;20135;-70
2022/06/10 10:28:13;;;;;;;5.13;1.52;;;21.30;99.90;;;;;;4095883;28;20044;-70
2022/06/10 10:30:16;;;;;;;5.20;1.30;;;21.40;99.90;;;;;;4092903;28;20036;-71
2022/06/10 10:32:27;;;;;;;3.22;1.30;;;21.40;99.90;;;;;;4079397;29;20063;-71
2022/06/10 10:34:36;;;;;;;4.10;0.98;;;21.40;99.90;;;;;;4095667;28;20035;-70
2022/06/10 10:36:43;;;;;;;3.53;1.13;;;21.40;99.90;;;;;;4094359;28;20489;-71
2022/06/10 10:38:45;;;;;;;4.13;1.17;;;21.40;99.90;;;;;;4093217;28;20450;-70
2022/06/10 10:40:47;;;;;;;5.03;1.20;;;21.40;99.90;;;;;;4092782;28;20043;-71
2022/06/10 10:42:53;;;;;;;6.72;1.35;;;21.50;99.90;;;;;;4095270;28;20271;-71
2022/06/10 10:45:33;;;;;;;4.38;1.00;;;21.50;99.90;;;;;;4091337;28;20397;-70
2022/06/10 10:47:36;;;;;;;4.10;1.08;;;21.50;99.90;;;;;;4094494;28;20130;-70
2022/06/10 10:49:41;;;;;;;3.85;0.88;;;21.50;99.90;;;;;;4094132;28;20372;-72
2022/06/10 10:51:42;;;;;;;4.53;1.13;;;21.60;99.90;;;;;;4092148;28;20062;-71
2022/06/10 10:53:48;;;;;;;8.60;1.42;;;21.70;99.90;;;;;;4095019;28;20122;-71
2022/06/10 10:55:57;;;;;;;8.32;1.65;;;21.80;99.90;;;;;;4094065;28;20091;-71
2022/06/10 10:58:08;;;;;;;10.10;2.42;;;21.80;99.90;;;;;;4094819;28;20595;-71
2022/06/10 11:00:14;;;;;;;7.55;1.63;;;21.90;99.90;;;;;;4079346;29;20741;-71
2022/06/10 11:02:51;;;;;;;5.15;1.33;;;21.90;99.90;;;;;;4093934;28;20502;-71
2022/06/10 11:05:06;;;;;;;8.15;1.65;;;21.90;99.90;;;;;;4085287;28;20058;-71
2022/06/10 11:07:10;;;;;;;8.32;1.73;;;21.90;99.90;;;;;;4094055;28;20039;-71
2022/06/10 11:09:15;;;;;;;7.90;1.52;;;22.00;99.90;;;;;;4093958;28;20619;-70
2022/06/10 11:11:28;;;;;;;5.82;1.40;;;22.00;99.90;;;;;;4094581;28;20387;-71
2022/06/10 11:13:44;;;;;;;7.10;1.30;;;22.10;99.90;;;;;;4093690;28;20046;-71
2022/06/10 11:15:44;;;;;;;4.55;1.60;;;22.10;99.90;;;;;;4093359;28;20039;-70